sensor_id;sensor_type;location;lat;lon;timestamp;P1;durP1;ratioP1;P2;durP2;ratioP2
48092;SDS011;33873;47.442;18.902;2022-08-19T00:00:24;12.40;;;6.85;;
48092;SDS011;33873;47.442;18.902;2022-08-19T00:02:52;10.30;;;7.35;;
48092;SDS011;33873;47.442;18.902;2022-08-19T00:05:21;12.00;;;7.45;;
48092;SDS011;33873;47.442;18.902;2022-08-19T00:07:49;14.32;;;7.55;;
48092;SDS011;33873;47.442;18.902;2022-08-19T00:10:17;11.70;;;7.53;;
48092;SDS011;33873;47.442;18.902;2022-08-19T00:12:45;12.07;;;8.00;;
48092;SDS011;33873;47.442;18.902;2022-08-19T00:15:14;10.15;;;6.95;;
48092;SDS011;33873;47.442;18.902;2022-08-19T00:17:44;15.15;;;7.07;;
48092;SDS011;33873;47.442;18.902;2022-08-19T00:20:12;9.95;;;7.60;;
48092;SDS011;33873;47.442;18.902;2022-08-19T00:22:44;18.30;;;7.57;;
48092;SDS011;33873;47.442;18.902;2022-08-19T00:25:12;8.95;;;7.05;;
48092;SDS011;33873;47.442;18.902;2022-08-19T00:27:41;10.65;;;7.37;;
48092;SDS011;33873;47.442;18.902;2022-08-19T00:30:09;10.30;;;7.12;;
48092;SDS011;33873;47.442;18.902;2022-08-19T00:32:38;9.82;;;7.65;;
48092;SDS011;33873;47.442;18.902;2022-08-19T00:35:06;10.25;;;7.45;;
48092;SDS011;33873;47.442;18.902;2022-08-19T00:37:34;9.52;;;7.25;;
48092;SDS011;33873;47.442;18.902;2022-08-19T00:40:02;10.43;;;7.47;;
48092;SDS011;33873;47.442;18.902;2022-08-19T00:42:32;9.23;;;7.12;;
48092;SDS011;33873;47.442;18.902;2022-08-19T00:45:00;9.55;;;6.93;;
48092;SDS011;33873;47.442;18.902;2022-08-19T00:47:27;12.05;;;7.45;;
48092;SDS011;33873;47.442;18.902;2022-08-19T00:49:56;10.02;;;7.25;;
48092;SDS011;33873;47.442;18.902;2022-08-19T00:52:26;10.13;;;7.68;;
48092;SDS011;33873;47.442;18.902;2022-08-19T00:54:58;11.32;;;8.55;;
48092;SDS011;33873;47.442;18.902;2022-08-19T00:57:32;10.23;;;7.57;;
48092;SDS011;33873;47.442;18.902;2022-08-19T01:00:05;11.60;;;8.13;;
48092;SDS011;33873;47.442;18.902;2022-08-19T01:02:35;11.12;;;7.40;;
48092;SDS011;33873;47.442;18.902;2022-08-19T01:05:05;14.10;;;7.68;;
48092;SDS011;33873;47.442;18.902;2022-08-19T01:07:34;14.45;;;7.57;;
48092;SDS011;33873;47.442;18.902;2022-08-19T01:10:05;10.90;;;7.85;;
48092;SDS011;33873;47.442;18.902;2022-08-19T01:12:35;13.15;;;8.30;;
48092;SDS011;33873;47.442;18.902;2022-08-19T01:15:04;10.43;;;7.25;;
48092;SDS011;33873;47.442;18.902;2022-08-19T01:17:34;10.48;;;7.87;;
48092;SDS011;33873;47.442;18.902;2022-08-19T01:20:04;8.40;;;6.97;;
48092;SDS011;33873;47.442;18.902;2022-08-19T01:22:36;9.65;;;7.82;;
48092;SDS011;33873;47.442;18.902;2022-08-19T01:25:18;11.88;;;7.60;;
48092;SDS011;33873;47.442;18.902;2022-08-19T01:27:48;10.98;;;7.65;;
48092;SDS011;33873;47.442;18.902;2022-08-19T01:30:21;9.63;;;8.00;;
48092;SDS011;33873;47.442;18.902;2022-08-19T01:32:52;9.68;;;8.00;;
48092;SDS011;33873;47.442;18.902;2022-08-19T01:35:22;9.10;;;7.25;;
48092;SDS011;33873;47.442;18.902;2022-08-19T01:38:05;11.70;;;7.55;;
48092;SDS011;33873;47.442;18.902;2022-08-19T01:40:36;10.85;;;7.87;;
48092;SDS011;33873;47.442;18.902;2022-08-19T01:43:05;11.10;;;7.93;;
48092;SDS011;33873;47.442;18.902;2022-08-19T01:45:34;10.20;;;7.30;;
48092;SDS011;33873;47.442;18.902;2022-08-19T01:48:03;12.13;;;6.95;;
48092;SDS011;33873;47.442;18.902;2022-08-19T01:50:31;10.27;;;7.55;;
48092;SDS011;33873;47.442;18.902;2022-08-19T01:53:00;10.10;;;7.50;;
48092;SDS011;33873;47.442;18.902;2022-08-19T01:55:35;10.55;;;7.62;;
48092;SDS011;33873;47.442;18.902;2022-08-19T01:58:08;11.75;;;7.40;;
48092;SDS011;33873;47.442;18.902;2022-08-19T02:00:42;11.30;;;8.00;;
48092;SDS011;33873;47.442;18.902;2022-08-19T02:03:10;11.30;;;7.25;;
48092;SDS011;33873;47.442;18.902;2022-08-19T02:05:39;10.20;;;7.70;;
48092;SDS011;33873;47.442;18.902;2022-08-19T02:08:07;10.07;;;7.65;;
48092;SDS011;33873;47.442;18.902;2022-08-19T02:10:38;13.62;;;8.57;;
48092;SDS011;33873;47.442;18.902;2022-08-19T02:13:10;10.00;;;7.50;;
48092;SDS011;33873;47.442;18.902;2022-08-19T02:15:39;14.70;;;8.90;;
48092;SDS011;33873;47.442;18.902;2022-08-19T02:18:07;11.43;;;7.80;;
48092;SDS011;33873;47.442;18.902;2022-08-19T02:20:35;9.57;;;6.85;;
48092;SDS011;33873;47.442;18.902;2022-08-19T02:23:04;10.02;;;8.23;;
48092;SDS011;33873;47.442;18.902;2022-08-19T02:25:40;11.10;;;8.35;;
48092;SDS011;33873;47.442;18.902;2022-08-19T02:28:08;13.93;;;8.23;;
48092;SDS011;33873;47.442;18.902;2022-08-19T02:30:36;12.98;;;8.45;;
48092;SDS011;33873;47.442;18.902;2022-08-19T02:33:05;11.07;;;7.60;;
48092;SDS011;33873;47.442;18.902;2022-08-19T02:35:32;11.45;;;7.80;;
48092;SDS011;33873;47.442;18.902;2022-08-19T02:38:00;11.00;;;7.72;;
48092;SDS011;33873;47.442;18.902;2022-08-19T02:40:50;12.10;;;8.00;;
48092;SDS011;33873;47.442;18.902;2022-08-19T02:43:19;10.27;;;7.68;;
48092;SDS011;33873;47.442;18.902;2022-08-19T02:45:48;11.57;;;8.07;;
48092;SDS011;33873;47.442;18.902;2022-08-19T02:48:17;9.10;;;7.47;;
48092;SDS011;33873;47.442;18.902;2022-08-19T02:50:49;11.57;;;7.60;;
48092;SDS011;33873;47.442;18.902;2022-08-19T02:53:23;12.52;;;8.18;;
48092;SDS011;33873;47.442;18.902;2022-08-19T02:55:52;10.80;;;8.10;;
48092;SDS011;33873;47.442;18.902;2022-08-19T02:58:20;11.27;;;7.53;;
48092;SDS011;33873;47.442;18.902;2022-08-19T03:00:50;9.65;;;7.62;;
48092;SDS011;33873;47.442;18.902;2022-08-19T03:03:19;12.43;;;8.80;;
48092;SDS011;33873;47.442;18.902;2022-08-19T03:05:47;9.85;;;7.55;;
48092;SDS011;33873;47.442;18.902;2022-08-19T03:08:24;10.07;;;7.32;;
48092;SDS011;33873;47.442;18.902;2022-08-19T03:10:52;9.85;;;7.60;;
48092;SDS011;33873;47.442;18.902;2022-08-19T03:13:20;12.52;;;7.78;;
48092;SDS011;33873;47.442;18.902;2022-08-19T03:15:48;10.18;;;7.70;;
48092;SDS011;33873;47.442;18.902;2022-08-19T03:18:16;11.93;;;8.23;;
48092;SDS011;33873;47.442;18.902;2022-08-19T03:20:45;9.18;;;7.40;;
48092;SDS011;33873;47.442;18.902;2022-08-19T03:23:15;10.30;;;8.15;;
48092;SDS011;33873;47.442;18.902;2022-08-19T03:25:45;12.30;;;7.57;;
48092;SDS011;33873;47.442;18.902;2022-08-19T03:28:34;9.73;;;7.55;;
48092;SDS011;33873;47.442;18.902;2022-08-19T03:31:10;10.43;;;7.62;;
48092;SDS011;33873;47.442;18.902;2022-08-19T03:33:59;11.60;;;7.97;;
48092;SDS011;33873;47.442;18.902;2022-08-19T03:36:26;11.70;;;8.77;;
48092;SDS011;33873;47.442;18.902;2022-08-19T03:38:56;11.75;;;8.07;;
48092;SDS011;33873;47.442;18.902;2022-08-19T03:41:30;9.85;;;7.43;;
48092;SDS011;33873;47.442;18.902;2022-08-19T03:44:14;9.63;;;8.13;;
48092;SDS011;33873;47.442;18.902;2022-08-19T03:49:14;11.30;;;7.65;;
48092;SDS011;33873;47.442;18.902;2022-08-19T03:51:44;10.30;;;7.50;;
48092;SDS011;33873;47.442;18.902;2022-08-19T03:54:14;10.50;;;8.23;;
48092;SDS011;33873;47.442;18.902;2022-08-19T03:56:43;9.38;;;7.68;;
48092;SDS011;33873;47.442;18.902;2022-08-19T03:59:12;10.10;;;7.12;;
48092;SDS011;33873;47.442;18.902;2022-08-19T04:01:45;11.85;;;8.35;;
48092;SDS011;33873;47.442;18.902;2022-08-19T04:04:13;9.77;;;7.78;;
48092;SDS011;33873;47.442;18.902;2022-08-19T04:06:40;10.23;;;7.95;;
48092;SDS011;33873;47.442;18.902;2022-08-19T04:09:08;9.48;;;7.75;;
48092;SDS011;33873;47.442;18.902;2022-08-19T04:11:45;11.43;;;7.87;;
48092;SDS011;33873;47.442;18.902;2022-08-19T04:14:15;10.90;;;8.02;;
48092;SDS011;33873;47.442;18.902;2022-08-19T04:16:45;10.73;;;7.35;;
48092;SDS011;33873;47.442;18.902;2022-08-19T04:19:14;11.63;;;8.07;;
48092;SDS011;33873;47.442;18.902;2022-08-19T04:21:44;12.05;;;7.57;;
48092;SDS011;33873;47.442;18.902;2022-08-19T04:24:14;10.45;;;8.23;;
48092;SDS011;33873;47.442;18.902;2022-08-19T04:26:41;12.27;;;8.05;;
48092;SDS011;33873;47.442;18.902;2022-08-19T04:29:14;13.02;;;8.15;;
48092;SDS011;33873;47.442;18.902;2022-08-19T04:31:44;13.55;;;7.75;;
48092;SDS011;33873;47.442;18.902;2022-08-19T04:34:13;11.40;;;8.00;;
48092;SDS011;33873;47.442;18.902;2022-08-19T04:36:42;13.45;;;8.45;;
48092;SDS011;33873;47.442;18.902;2022-08-19T04:39:14;11.65;;;8.00;;
48092;SDS011;33873;47.442;18.902;2022-08-19T04:41:43;11.45;;;8.18;;
48092;SDS011;33873;47.442;18.902;2022-08-19T04:44:30;12.30;;;8.30;;
48092;SDS011;33873;47.442;18.902;2022-08-19T04:47:05;10.75;;;7.93;;
48092;SDS011;33873;47.442;18.902;2022-08-19T04:49:37;11.10;;;7.40;;
48092;SDS011;33873;47.442;18.902;2022-08-19T04:52:05;10.93;;;8.00;;
48092;SDS011;33873;47.442;18.902;2022-08-19T04:54:32;12.57;;;7.95;;
48092;SDS011;33873;47.442;18.902;2022-08-19T04:57:08;11.77;;;7.68;;
48092;SDS011;33873;47.442;18.902;2022-08-19T04:59:37;13.38;;;8.40;;
48092;SDS011;33873;47.442;18.902;2022-08-19T05:02:07;12.82;;;8.10;;
48092;SDS011;33873;47.442;18.902;2022-08-19T05:04:36;15.40;;;8.48;;
48092;SDS011;33873;47.442;18.902;2022-08-19T05:07:07;11.15;;;8.38;;
48092;SDS011;33873;47.442;18.902;2022-08-19T05:09:35;9.70;;;7.95;;
48092;SDS011;33873;47.442;18.902;2022-08-19T05:12:23;10.40;;;7.95;;
48092;SDS011;33873;47.442;18.902;2022-08-19T05:14:56;11.32;;;8.15;;
48092;SDS011;33873;47.442;18.902;2022-08-19T05:17:25;12.63;;;7.68;;
48092;SDS011;33873;47.442;18.902;2022-08-19T05:19:58;13.40;;;7.40;;
48092;SDS011;33873;47.442;18.902;2022-08-19T05:22:45;15.23;;;7.95;;
48092;SDS011;33873;47.442;18.902;2022-08-19T05:25:17;11.73;;;7.78;;
48092;SDS011;33873;47.442;18.902;2022-08-19T05:27:47;12.27;;;8.02;;
48092;SDS011;33873;47.442;18.902;2022-08-19T05:30:15;12.43;;;7.90;;
48092;SDS011;33873;47.442;18.902;2022-08-19T05:32:43;10.25;;;8.02;;
48092;SDS011;33873;47.442;18.902;2022-08-19T05:35:11;10.43;;;8.00;;
48092;SDS011;33873;47.442;18.902;2022-08-19T05:37:39;10.30;;;8.38;;
48092;SDS011;33873;47.442;18.902;2022-08-19T05:40:08;12.40;;;7.87;;
48092;SDS011;33873;47.442;18.902;2022-08-19T05:42:37;10.35;;;7.10;;
48092;SDS011;33873;47.442;18.902;2022-08-19T05:45:05;12.07;;;8.18;;
48092;SDS011;33873;47.442;18.902;2022-08-19T05:47:33;14.18;;;7.32;;
48092;SDS011;33873;47.442;18.902;2022-08-19T05:50:08;9.98;;;7.55;;
48092;SDS011;33873;47.442;18.902;2022-08-19T05:52:37;14.63;;;8.18;;
48092;SDS011;33873;47.442;18.902;2022-08-19T05:55:12;9.13;;;7.35;;
48092;SDS011;33873;47.442;18.902;2022-08-19T05:57:39;11.35;;;8.00;;
48092;SDS011;33873;47.442;18.902;2022-08-19T06:00:07;10.85;;;7.70;;
48092;SDS011;33873;47.442;18.902;2022-08-19T06:02:37;10.43;;;7.93;;
48092;SDS011;33873;47.442;18.902;2022-08-19T06:05:06;14.00;;;7.97;;
48092;SDS011;33873;47.442;18.902;2022-08-19T06:07:36;12.70;;;8.32;;
48092;SDS011;33873;47.442;18.902;2022-08-19T06:10:06;13.25;;;7.70;;
48092;SDS011;33873;47.442;18.902;2022-08-19T06:12:35;10.82;;;7.47;;
48092;SDS011;33873;47.442;18.902;2022-08-19T06:15:05;11.38;;;7.28;;
48092;SDS011;33873;47.442;18.902;2022-08-19T06:17:37;10.18;;;8.00;;
48092;SDS011;33873;47.442;18.902;2022-08-19T06:20:06;10.43;;;7.22;;
48092;SDS011;33873;47.442;18.902;2022-08-19T06:22:40;13.45;;;7.87;;
48092;SDS011;33873;47.442;18.902;2022-08-19T06:25:08;11.95;;;7.95;;
48092;SDS011;33873;47.442;18.902;2022-08-19T06:27:36;9.65;;;7.60;;
48092;SDS011;33873;47.442;18.902;2022-08-19T06:30:19;9.80;;;7.05;;
48092;SDS011;33873;47.442;18.902;2022-08-19T06:32:47;9.52;;;6.72;;
48092;SDS011;33873;47.442;18.902;2022-08-19T06:35:14;10.25;;;7.53;;
48092;SDS011;33873;47.442;18.902;2022-08-19T06:37:42;11.55;;;6.87;;
48092;SDS011;33873;47.442;18.902;2022-08-19T06:40:11;12.23;;;7.30;;
48092;SDS011;33873;47.442;18.902;2022-08-19T06:42:39;10.60;;;7.45;;
48092;SDS011;33873;47.442;18.902;2022-08-19T06:45:24;21.10;;;8.20;;
48092;SDS011;33873;47.442;18.902;2022-08-19T06:48:02;9.93;;;7.15;;
48092;SDS011;33873;47.442;18.902;2022-08-19T06:50:30;11.07;;;7.85;;
48092;SDS011;33873;47.442;18.902;2022-08-19T06:52:57;11.63;;;7.22;;
48092;SDS011;33873;47.442;18.902;2022-08-19T06:55:30;11.75;;;7.43;;
48092;SDS011;33873;47.442;18.902;2022-08-19T06:58:03;12.85;;;7.30;;
48092;SDS011;33873;47.442;18.902;2022-08-19T07:00:32;10.43;;;7.32;;
48092;SDS011;33873;47.442;18.902;2022-08-19T07:02:59;11.80;;;7.78;;
48092;SDS011;33873;47.442;18.902;2022-08-19T07:05:40;12.50;;;7.47;;
48092;SDS011;33873;47.442;18.902;2022-08-19T07:08:12;10.68;;;6.75;;
48092;SDS011;33873;47.442;18.902;2022-08-19T07:10:44;11.77;;;7.03;;
48092;SDS011;33873;47.442;18.902;2022-08-19T07:13:12;11.52;;;7.62;;
48092;SDS011;33873;47.442;18.902;2022-08-19T07:15:40;10.20;;;7.03;;
48092;SDS011;33873;47.442;18.902;2022-08-19T07:18:08;11.90;;;6.57;;
48092;SDS011;33873;47.442;18.902;2022-08-19T07:20:38;15.55;;;7.05;;
48092;SDS011;33873;47.442;18.902;2022-08-19T07:23:09;12.15;;;7.47;;
48092;SDS011;33873;47.442;18.902;2022-08-19T07:25:42;9.03;;;6.37;;
48092;SDS011;33873;47.442;18.902;2022-08-19T07:28:10;10.73;;;7.22;;
48092;SDS011;33873;47.442;18.902;2022-08-19T07:30:50;11.43;;;7.68;;
48092;SDS011;33873;47.442;18.902;2022-08-19T07:33:19;13.02;;;6.95;;
48092;SDS011;33873;47.442;18.902;2022-08-19T07:35:47;11.32;;;6.68;;
48092;SDS011;33873;47.442;18.902;2022-08-19T07:38:16;10.23;;;6.95;;
48092;SDS011;33873;47.442;18.902;2022-08-19T07:40:44;10.43;;;7.22;;
48092;SDS011;33873;47.442;18.902;2022-08-19T07:43:13;12.82;;;6.90;;
48092;SDS011;33873;47.442;18.902;2022-08-19T07:45:44;11.35;;;6.75;;
48092;SDS011;33873;47.442;18.902;2022-08-19T07:48:12;11.73;;;6.60;;
48092;SDS011;33873;47.442;18.902;2022-08-19T07:50:41;9.07;;;6.53;;
48092;SDS011;33873;47.442;18.902;2022-08-19T07:53:09;12.85;;;6.65;;
48092;SDS011;33873;47.442;18.902;2022-08-19T07:55:37;12.00;;;6.57;;
48092;SDS011;33873;47.442;18.902;2022-08-19T07:58:09;10.95;;;7.07;;
48092;SDS011;33873;47.442;18.902;2022-08-19T08:00:41;12.05;;;6.25;;
48092;SDS011;33873;47.442;18.902;2022-08-19T08:03:10;12.50;;;7.00;;
48092;SDS011;33873;47.442;18.902;2022-08-19T08:05:38;10.23;;;6.43;;
48092;SDS011;33873;47.442;18.902;2022-08-19T08:08:25;12.15;;;6.90;;
48092;SDS011;33873;47.442;18.902;2022-08-19T08:10:59;10.25;;;6.72;;
48092;SDS011;33873;47.442;18.902;2022-08-19T08:13:27;9.27;;;6.15;;
48092;SDS011;33873;47.442;18.902;2022-08-19T08:15:55;11.85;;;6.35;;
48092;SDS011;33873;47.442;18.902;2022-08-19T08:18:24;10.60;;;6.53;;
48092;SDS011;33873;47.442;18.902;2022-08-19T08:20:57;9.15;;;6.68;;
48092;SDS011;33873;47.442;18.902;2022-08-19T08:23:25;9.95;;;6.50;;
48092;SDS011;33873;47.442;18.902;2022-08-19T08:25:54;10.38;;;6.45;;
48092;SDS011;33873;47.442;18.902;2022-08-19T08:28:25;12.00;;;6.28;;
48092;SDS011;33873;47.442;18.902;2022-08-19T08:30:56;12.60;;;6.00;;
48092;SDS011;33873;47.442;18.902;2022-08-19T08:33:25;10.20;;;5.72;;
48092;SDS011;33873;47.442;18.902;2022-08-19T08:36:01;11.77;;;6.00;;
48092;SDS011;33873;47.442;18.902;2022-08-19T08:38:32;12.07;;;5.90;;
48092;SDS011;33873;47.442;18.902;2022-08-19T08:44:17;8.00;;;5.60;;
48092;SDS011;33873;47.442;18.902;2022-08-19T08:47:13;9.35;;;6.10;;
48092;SDS011;33873;47.442;18.902;2022-08-19T08:50:03;7.93;;;5.78;;
48092;SDS011;33873;47.442;18.902;2022-08-19T08:52:36;11.93;;;5.70;;
48092;SDS011;33873;47.442;18.902;2022-08-19T08:55:12;9.43;;;5.78;;
48092;SDS011;33873;47.442;18.902;2022-08-19T09:00:37;8.88;;;5.53;;
48092;SDS011;33873;47.442;18.902;2022-08-19T09:03:09;8.10;;;5.90;;
48092;SDS011;33873;47.442;18.902;2022-08-19T09:06:00;9.27;;;6.45;;
48092;SDS011;33873;47.442;18.902;2022-08-19T09:08:49;9.48;;;5.57;;
48092;SDS011;33873;47.442;18.902;2022-08-19T09:17:21;9.35;;;5.45;;
48092;SDS011;33873;47.442;18.902;2022-08-19T09:19:56;7.18;;;5.12;;
48092;SDS011;33873;47.442;18.902;2022-08-19T09:22:36;10.27;;;5.93;;
48092;SDS011;33873;47.442;18.902;2022-08-19T09:25:06;13.95;;;5.57;;
48092;SDS011;33873;47.442;18.902;2022-08-19T09:27:36;7.87;;;5.15;;
48092;SDS011;33873;47.442;18.902;2022-08-19T09:30:14;10.73;;;5.47;;
48092;SDS011;33873;47.442;18.902;2022-08-19T09:32:45;7.57;;;5.22;;
48092;SDS011;33873;47.442;18.902;2022-08-19T09:35:23;8.50;;;5.40;;
48092;SDS011;33873;47.442;18.902;2022-08-19T09:37:55;10.32;;;5.15;;
48092;SDS011;33873;47.442;18.902;2022-08-19T09:40:27;9.55;;;4.95;;
48092;SDS011;33873;47.442;18.902;2022-08-19T09:42:56;8.48;;;5.95;;
48092;SDS011;33873;47.442;18.902;2022-08-19T09:45:24;10.32;;;5.12;;
48092;SDS011;33873;47.442;18.902;2022-08-19T09:47:52;9.57;;;5.85;;
48092;SDS011;33873;47.442;18.902;2022-08-19T09:50:22;11.07;;;6.28;;
48092;SDS011;33873;47.442;18.902;2022-08-19T09:52:50;6.97;;;5.57;;
48092;SDS011;33873;47.442;18.902;2022-08-19T09:55:24;9.43;;;5.83;;
48092;SDS011;33873;47.442;18.902;2022-08-19T09:58:01;10.30;;;5.20;;
48092;SDS011;33873;47.442;18.902;2022-08-19T10:00:29;9.98;;;5.90;;
48092;SDS011;33873;47.442;18.902;2022-08-19T10:02:58;8.23;;;5.85;;
48092;SDS011;33873;47.442;18.902;2022-08-19T10:05:27;8.18;;;6.07;;
48092;SDS011;33873;47.442;18.902;2022-08-19T10:08:16;9.23;;;5.47;;
48092;SDS011;33873;47.442;18.902;2022-08-19T10:10:47;8.05;;;5.60;;
48092;SDS011;33873;47.442;18.902;2022-08-19T10:13:16;8.38;;;5.43;;
48092;SDS011;33873;47.442;18.902;2022-08-19T10:15:49;12.73;;;5.80;;
48092;SDS011;33873;47.442;18.902;2022-08-19T10:18:18;9.05;;;5.80;;
48092;SDS011;33873;47.442;18.902;2022-08-19T10:20:48;10.13;;;5.22;;
48092;SDS011;33873;47.442;18.902;2022-08-19T10:23:19;10.48;;;6.05;;
48092;SDS011;33873;47.442;18.902;2022-08-19T10:25:47;8.60;;;5.55;;
48092;SDS011;33873;47.442;18.902;2022-08-19T10:28:15;9.07;;;5.37;;
48092;SDS011;33873;47.442;18.902;2022-08-19T10:30:46;7.32;;;5.35;;
48092;SDS011;33873;47.442;18.902;2022-08-19T10:33:14;12.27;;;5.78;;
48092;SDS011;33873;47.442;18.902;2022-08-19T10:36:03;8.15;;;5.55;;
48092;SDS011;33873;47.442;18.902;2022-08-19T10:38:36;15.82;;;5.68;;
48092;SDS011;33873;47.442;18.902;2022-08-19T10:41:12;7.93;;;5.65;;
48092;SDS011;33873;47.442;18.902;2022-08-19T10:43:42;9.77;;;5.30;;
48092;SDS011;33873;47.442;18.902;2022-08-19T10:46:13;10.77;;;5.50;;
48092;SDS011;33873;47.442;18.902;2022-08-19T10:48:43;8.88;;;5.18;;
48092;SDS011;33873;47.442;18.902;2022-08-19T10:51:12;10.18;;;5.28;;
48092;SDS011;33873;47.442;18.902;2022-08-19T10:53:58;8.98;;;5.28;;
48092;SDS011;33873;47.442;18.902;2022-08-19T10:56:27;8.00;;;5.45;;
48092;SDS011;33873;47.442;18.902;2022-08-19T10:59:14;11.12;;;6.20;;
48092;SDS011;33873;47.442;18.902;2022-08-19T11:01:43;10.90;;;5.22;;
48092;SDS011;33873;47.442;18.902;2022-08-19T11:04:11;10.68;;;5.37;;
48092;SDS011;33873;47.442;18.902;2022-08-19T11:06:41;8.63;;;6.03;;
48092;SDS011;33873;47.442;18.902;2022-08-19T11:09:10;6.95;;;5.30;;
48092;SDS011;33873;47.442;18.902;2022-08-19T11:11:39;10.55;;;6.20;;
48092;SDS011;33873;47.442;18.902;2022-08-19T11:14:12;12.52;;;7.87;;
48092;SDS011;33873;47.442;18.902;2022-08-19T11:16:42;12.88;;;9.05;;
48092;SDS011;33873;47.442;18.902;2022-08-19T11:19:10;12.43;;;10.10;;
48092;SDS011;33873;47.442;18.902;2022-08-19T11:21:40;15.27;;;10.10;;
48092;SDS011;33873;47.442;18.902;2022-08-19T11:24:11;12.75;;;11.05;;
48092;SDS011;33873;47.442;18.902;2022-08-19T11:26:43;12.73;;;11.35;;
48092;SDS011;33873;47.442;18.902;2022-08-19T11:29:12;14.80;;;11.05;;
48092;SDS011;33873;47.442;18.902;2022-08-19T11:31:42;13.35;;;11.93;;
48092;SDS011;33873;47.442;18.902;2022-08-19T11:34:12;15.68;;;12.85;;
48092;SDS011;33873;47.442;18.902;2022-08-19T11:36:44;16.77;;;14.20;;
48092;SDS011;33873;47.442;18.902;2022-08-19T11:39:15;15.88;;;12.80;;
48092;SDS011;33873;47.442;18.902;2022-08-19T11:41:43;15.43;;;11.65;;
48092;SDS011;33873;47.442;18.902;2022-08-19T11:44:11;14.87;;;11.18;;
48092;SDS011;33873;47.442;18.902;2022-08-19T11:46:41;15.27;;;10.45;;
48092;SDS011;33873;47.442;18.902;2022-08-19T11:49:13;13.43;;;10.18;;
48092;SDS011;33873;47.442;18.902;2022-08-19T11:51:42;12.07;;;9.82;;
48092;SDS011;33873;47.442;18.902;2022-08-19T11:54:11;13.45;;;9.98;;
48092;SDS011;33873;47.442;18.902;2022-08-19T11:56:40;12.70;;;10.70;;
48092;SDS011;33873;47.442;18.902;2022-08-19T11:59:09;15.05;;;12.18;;
48092;SDS011;33873;47.442;18.902;2022-08-19T12:01:40;13.80;;;12.30;;
48092;SDS011;33873;47.442;18.902;2022-08-19T12:04:10;13.73;;;11.98;;
48092;SDS011;33873;47.442;18.902;2022-08-19T12:06:38;17.65;;;13.57;;
48092;SDS011;33873;47.442;18.902;2022-08-19T12:09:08;18.37;;;13.98;;
48092;SDS011;33873;47.442;18.902;2022-08-19T12:11:37;13.88;;;12.27;;
48092;SDS011;33873;47.442;18.902;2022-08-19T12:14:05;15.35;;;13.18;;
48092;SDS011;33873;47.442;18.902;2022-08-19T12:16:33;16.60;;;12.52;;
48092;SDS011;33873;47.442;18.902;2022-08-19T12:19:06;14.43;;;11.60;;
48092;SDS011;33873;47.442;18.902;2022-08-19T12:21:34;14.55;;;11.32;;
48092;SDS011;33873;47.442;18.902;2022-08-19T12:24:05;14.20;;;11.50;;
48092;SDS011;33873;47.442;18.902;2022-08-19T12:26:33;13.30;;;10.77;;
48092;SDS011;33873;47.442;18.902;2022-08-19T12:29:18;14.75;;;10.10;;
48092;SDS011;33873;47.442;18.902;2022-08-19T12:31:50;14.35;;;9.23;;
48092;SDS011;33873;47.442;18.902;2022-08-19T12:34:18;12.07;;;8.20;;
48092;SDS011;33873;47.442;18.902;2022-08-19T12:36:47;12.75;;;9.15;;
48092;SDS011;33873;47.442;18.902;2022-08-19T12:39:16;12.57;;;9.07;;
48092;SDS011;33873;47.442;18.902;2022-08-19T12:41:44;10.50;;;8.65;;
48092;SDS011;33873;47.442;18.902;2022-08-19T12:44:21;12.20;;;7.05;;
48092;SDS011;33873;47.442;18.902;2022-08-19T12:46:56;13.98;;;4.93;;
48092;SDS011;33873;47.442;18.902;2022-08-19T12:49:24;14.10;;;5.95;;
48092;SDS011;33873;47.442;18.902;2022-08-19T12:52:12;8.27;;;4.70;;
48092;SDS011;33873;47.442;18.902;2022-08-19T12:54:50;7.55;;;4.18;;
48092;SDS011;33873;47.442;18.902;2022-08-19T12:57:21;10.98;;;4.90;;
48092;SDS011;33873;47.442;18.902;2022-08-19T13:00:04;11.20;;;5.32;;
48092;SDS011;33873;47.442;18.902;2022-08-19T13:02:41;11.98;;;5.37;;
48092;SDS011;33873;47.442;18.902;2022-08-19T13:05:14;8.27;;;4.60;;
48092;SDS011;33873;47.442;18.902;2022-08-19T13:07:43;7.37;;;4.07;;
48092;SDS011;33873;47.442;18.902;2022-08-19T13:10:12;7.78;;;4.18;;
48092;SDS011;33873;47.442;18.902;2022-08-19T13:12:43;8.88;;;4.45;;
48092;SDS011;33873;47.442;18.902;2022-08-19T13:15:11;12.70;;;4.90;;
48092;SDS011;33873;47.442;18.902;2022-08-19T13:17:41;9.02;;;4.10;;
48092;SDS011;33873;47.442;18.902;2022-08-19T13:20:09;13.55;;;4.47;;
48092;SDS011;33873;47.442;18.902;2022-08-19T13:22:37;10.13;;;4.60;;
48092;SDS011;33873;47.442;18.902;2022-08-19T13:25:06;9.10;;;4.30;;
48092;SDS011;33873;47.442;18.902;2022-08-19T13:27:34;10.57;;;3.83;;
48092;SDS011;33873;47.442;18.902;2022-08-19T13:30:03;7.93;;;4.22;;
48092;SDS011;33873;47.442;18.902;2022-08-19T13:32:50;24.63;;;5.50;;
48092;SDS011;33873;47.442;18.902;2022-08-19T13:35:46;16.15;;;4.90;;
48092;SDS011;33873;47.442;18.902;2022-08-19T13:38:18;14.40;;;5.30;;
48092;SDS011;33873;47.442;18.902;2022-08-19T13:40:48;28.80;;;5.95;;
48092;SDS011;33873;47.442;18.902;2022-08-19T13:43:18;36.15;;;7.72;;
48092;SDS011;33873;47.442;18.902;2022-08-19T13:45:50;10.55;;;4.72;;
48092;SDS011;33873;47.442;18.902;2022-08-19T13:48:21;14.87;;;4.00;;
48092;SDS011;33873;47.442;18.902;2022-08-19T13:50:49;17.50;;;4.97;;
48092;SDS011;33873;47.442;18.902;2022-08-19T13:53:17;25.75;;;6.05;;
48092;SDS011;33873;47.442;18.902;2022-08-19T13:55:45;27.90;;;5.65;;
48092;SDS011;33873;47.442;18.902;2022-08-19T13:58:12;18.30;;;6.47;;
48092;SDS011;33873;47.442;18.902;2022-08-19T14:00:42;14.93;;;4.85;;
48092;SDS011;33873;47.442;18.902;2022-08-19T14:03:11;10.73;;;4.30;;
48092;SDS011;33873;47.442;18.902;2022-08-19T14:05:39;15.98;;;4.00;;
48092;SDS011;33873;47.442;18.902;2022-08-19T14:08:06;10.73;;;4.32;;
48092;SDS011;33873;47.442;18.902;2022-08-19T14:10:34;13.40;;;3.97;;
48092;SDS011;33873;47.442;18.902;2022-08-19T14:13:02;16.90;;;4.50;;
48092;SDS011;33873;47.442;18.902;2022-08-19T14:15:30;11.23;;;4.20;;
48092;SDS011;33873;47.442;18.902;2022-08-19T14:17:58;14.25;;;4.32;;
48092;SDS011;33873;47.442;18.902;2022-08-19T14:20:26;13.32;;;4.37;;
48092;SDS011;33873;47.442;18.902;2022-08-19T14:22:54;13.80;;;4.32;;
48092;SDS011;33873;47.442;18.902;2022-08-19T14:25:24;16.80;;;4.10;;
48092;SDS011;33873;47.442;18.902;2022-08-19T14:27:53;12.80;;;3.58;;
48092;SDS011;33873;47.442;18.902;2022-08-19T14:30:25;13.80;;;3.62;;
48092;SDS011;33873;47.442;18.902;2022-08-19T14:32:58;9.57;;;2.42;;
48092;SDS011;33873;47.442;18.902;2022-08-19T14:35:27;15.52;;;3.55;;
48092;SDS011;33873;47.442;18.902;2022-08-19T14:37:56;14.32;;;3.00;;
48092;SDS011;33873;47.442;18.902;2022-08-19T14:40:26;13.35;;;2.95;;
48092;SDS011;33873;47.442;18.902;2022-08-19T14:43:00;12.05;;;2.95;;
48092;SDS011;33873;47.442;18.902;2022-08-19T14:45:32;10.98;;;2.92;;
48092;SDS011;33873;47.442;18.902;2022-08-19T14:48:03;16.27;;;3.17;;
48092;SDS011;33873;47.442;18.902;2022-08-19T14:50:33;13.00;;;2.83;;
48092;SDS011;33873;47.442;18.902;2022-08-19T14:53:03;11.10;;;3.25;;
48092;SDS011;33873;47.442;18.902;2022-08-19T14:55:43;14.27;;;4.10;;
48092;SDS011;33873;47.442;18.902;2022-08-19T14:58:12;8.98;;;2.78;;
48092;SDS011;33873;47.442;18.902;2022-08-19T15:03:24;14.77;;;3.37;;